createdAt,value
2023-02-26T00:03:27.753Z,0.22
2023-02-26T00:08:29.891Z,0.21
2023-02-26T00:13:49.539Z,0.21
2023-02-26T00:18:32.661Z,0.25
2023-02-26T00:23:34.590Z,0.26
2023-02-26T00:28:36.445Z,0.25
2023-02-26T00:33:37.728Z,0.22
2023-02-26T00:38:39.546Z,0.13
2023-02-26T00:43:41.406Z,0.1
2023-02-26T00:48:42.599Z,0.07
2023-02-26T00:53:44.356Z,0.01
2023-02-26T00:58:45.570Z,-0.03
2023-02-26T01:03:47.425Z,-0.06
2023-02-26T01:08:49.332Z,-0.1
2023-02-26T01:13:50.551Z,-0.16
2023-02-26T01:18:52.078Z,-0.21
2023-02-26T01:23:53.373Z,-0.17
2023-02-26T01:28:55.434Z,-0.23
2023-02-26T01:33:56.793Z,-0.34
2023-02-26T01:38:58.078Z,-0.36
2023-02-26T01:44:00.156Z,-0.39
2023-02-26T01:49:01.688Z,-0.46
2023-02-26T01:54:03.197Z,-0.68
2023-02-26T01:59:05.142Z,-0.67
2023-02-26T02:04:07.139Z,-0.66
2023-02-26T02:09:08.551Z,-0.64
2023-02-26T02:14:09.911Z,-0.62
2023-02-26T02:19:11.478Z,-0.58
2023-02-26T02:24:13.159Z,-0.57
2023-02-26T02:29:15.133Z,-0.52
2023-02-26T02:34:16.327Z,-0.54
2023-02-26T02:34:22.691Z,-0.52
2023-02-26T02:39:23.852Z,-0.52
2023-02-26T02:44:25.271Z,-0.48
2023-02-26T02:49:27.478Z,-0.45
2023-02-26T02:54:29.029Z,-0.51
2023-02-26T02:59:30.475Z,-0.58
2023-02-26T03:04:31.888Z,-0.69
2023-02-26T03:09:34.034Z,-0.7
2023-02-26T03:14:35.910Z,-0.75
2023-02-26T03:19:37.688Z,-0.79
2023-02-26T03:24:39.394Z,-0.8
2023-02-26T03:29:41.502Z,-0.82
2023-02-26T03:34:43.119Z,-0.87
2023-02-26T03:39:45.220Z,-0.94
2023-02-26T03:44:46.411Z,-0.98
2023-02-26T03:49:48.617Z,-0.98
2023-02-26T04:04:53.239Z,-1.16
2023-02-26T04:19:58.186Z,-1.29
2023-02-26T04:30:01.990Z,-1.37
2023-02-26T04:35:04.104Z,-1.41
2023-02-26T04:40:05.690Z,-1.44
2023-02-26T04:50:09.194Z,-1.51
2023-02-26T04:55:11.164Z,-1.55
2023-02-26T05:00:13.131Z,-1.67
2023-02-26T05:05:15.156Z,-1.8
2023-02-26T05:10:17.193Z,-1.95
2023-02-26T05:15:19.033Z,-2.05
2023-02-26T05:20:20.280Z,-2.11
2023-02-26T05:25:21.966Z,-2.21
2023-02-26T05:30:24.214Z,-2.28
2023-02-26T05:35:26.106Z,-2.33
2023-02-26T05:40:27.405Z,-2.36
2023-02-26T05:45:28.776Z,-2.42
2023-02-26T05:50:30.976Z,-2.45
2023-02-26T05:55:32.992Z,-2.5
2023-02-26T06:00:34.915Z,-2.53
2023-02-26T06:05:36.908Z,-2.56
2023-02-26T06:10:38.583Z,-2.59
2023-02-26T06:15:39.869Z,-2.61
2023-02-26T06:20:41.245Z,-2.62
2023-02-26T06:25:43.090Z,-2.64
2023-02-26T06:30:44.508Z,-2.69
2023-02-26T06:35:45.931Z,-2.82
2023-02-26T06:40:47.520Z,-2.84
2023-02-26T06:45:48.911Z,-2.81
2023-02-26T06:50:50.111Z,-2.78
2023-02-26T06:55:51.790Z,-2.7
2023-02-26T07:00:53.338Z,-2.65
2023-02-26T07:05:55.323Z,-2.62
2023-02-26T07:10:56.574Z,-2.61
2023-02-26T07:15:58.149Z,-2.56
2023-02-26T07:21:00.264Z,-2.39
2023-02-26T07:26:02.335Z,-2.1
2023-02-26T07:31:03.960Z,-1.82
2023-02-26T07:36:05.601Z,-1
2023-02-26T07:41:07.190Z,-0.88
2023-02-26T07:46:08.548Z,-0.66
2023-02-26T07:51:09.959Z,0.09
2023-02-26T07:56:11.946Z,0.03
2023-02-26T08:01:13.880Z,0.01
2023-02-26T08:06:15.624Z,0.26
2023-02-26T08:11:17.259Z,0.68
2023-02-26T08:16:19.046Z,0.62
2023-02-26T08:21:20.984Z,0.54
2023-02-26T08:26:22.761Z,0.37
2023-02-26T08:31:23.862Z,0.11
2023-02-26T08:36:25.307Z,-0.06
2023-02-26T08:41:27.063Z,-0.38
2023-02-26T08:46:28.532Z,-0.7
2023-02-26T08:51:29.215Z,-0.58
2023-02-26T08:56:30.755Z,-0.54
2023-02-26T09:01:32.877Z,-0.61
2023-02-26T09:06:34.521Z,-0.69
2023-02-26T09:11:35.739Z,-0.62
2023-02-26T09:16:37.249Z,-0.54
2023-02-26T09:21:39.210Z,-0.92
2023-02-26T09:26:40.446Z,-1.15
2023-02-26T09:31:42.429Z,-1.24
2023-02-26T09:36:43.851Z,-1.22
2023-02-26T09:41:45.506Z,-1.14
2023-02-26T09:46:47.490Z,-1.27
2023-02-26T09:51:50.211Z,-1.25
2023-02-26T09:56:50.516Z,-1.07
2023-02-26T10:01:52.415Z,-0.89
2023-02-26T10:06:54.195Z,-0.72
2023-02-26T10:11:56.276Z,-0.56
2023-02-26T10:16:58.430Z,-0.32
2023-02-26T10:22:00.302Z,-0.13
2023-02-26T10:27:01.492Z,0.04
2023-02-26T10:32:03.680Z,-0.08
2023-02-26T10:37:05.832Z,-0.04
2023-02-26T10:42:07.481Z,0.41
2023-02-26T10:47:09.322Z,0.08
2023-02-26T10:52:11.126Z,-0.09
2023-02-26T10:57:12.500Z,0.1
2023-02-26T11:02:14.056Z,-0.04
2023-02-26T11:07:16.025Z,0.03
2023-02-26T11:12:17.633Z,-0.19
2023-02-26T11:17:19.543Z,0.08
2023-02-26T11:22:21.081Z,0.02
2023-02-26T11:27:22.952Z,-0.05
2023-02-26T11:32:24.834Z,-0.07
2023-02-26T11:37:28.224Z,0.13
2023-02-26T11:42:27.487Z,0.52
2023-02-26T11:47:29.193Z,0.86
2023-02-26T11:52:30.860Z,1.22
2023-02-26T11:57:32.459Z,1.03
2023-02-26T12:02:34.087Z,1.14
2023-02-26T12:07:35.670Z,0.89
2023-02-26T12:12:36.890Z,0.98
2023-02-26T12:17:48.593Z,1.01
2023-02-26T12:22:39.775Z,1.05
2023-02-26T12:27:50.954Z,1.16
2023-02-26T12:32:43.033Z,1.29
2023-02-26T12:37:44.211Z,1.22
2023-02-26T12:42:45.823Z,1.12
2023-02-26T12:47:47.314Z,0.65
2023-02-26T12:52:49.019Z,0.5
2023-02-26T12:57:50.332Z,0.54
2023-02-26T13:02:52.324Z,0.6
2023-02-26T13:07:53.803Z,0.69
2023-02-26T13:12:55.450Z,0.63
2023-02-26T13:17:57.391Z,0.55
2023-02-26T13:22:59.378Z,0.87
2023-02-26T13:28:00.801Z,0.93
2023-02-26T13:33:02.650Z,1.02
2023-02-26T13:38:04.205Z,1.07
2023-02-26T13:43:05.860Z,1.36
2023-02-26T13:48:09.960Z,1.42
2023-02-26T13:53:08.464Z,1.23
2023-02-26T13:58:09.798Z,1.15
2023-02-26T14:03:11.580Z,1.22
2023-02-26T14:08:12.900Z,1.31
2023-02-26T14:13:14.098Z,1.3
2023-02-26T14:18:16.256Z,1.08
2023-02-26T14:23:18.064Z,1.17
2023-02-26T14:28:19.941Z,1.17
2023-02-26T14:33:21.967Z,0.96
2023-02-26T14:38:23.230Z,0.9
2023-02-26T14:43:26.910Z,0.88
2023-02-26T14:48:26.657Z,0.89
2023-02-26T14:53:28.326Z,0.84
2023-02-26T14:58:29.811Z,0.87
2023-02-26T15:03:31.208Z,0.96
2023-02-26T15:08:33.126Z,0.98
2023-02-26T15:13:34.394Z,0.89
2023-02-26T15:18:36.562Z,0.98
2023-02-26T15:23:38.583Z,1
2023-02-26T15:28:40.675Z,0.94
2023-02-26T15:33:42.625Z,0.71
2023-02-26T15:38:44.027Z,0.61
2023-02-26T15:43:45.623Z,0.66
2023-02-26T15:48:47.062Z,0.69
2023-02-26T15:53:48.583Z,0.6
2023-02-26T15:58:50.628Z,0.33
2023-02-26T16:03:52.715Z,0.35
2023-02-26T16:08:54.907Z,0.37
2023-02-26T16:13:56.376Z,0.28
2023-02-26T16:18:58.063Z,0.25
2023-02-26T16:23:59.866Z,0.34
2023-02-26T16:29:01.038Z,0.4
2023-02-26T16:34:03.035Z,0.22
2023-02-26T16:39:04.329Z,0.23
2023-02-26T16:44:06.475Z,0.2
2023-02-26T16:49:08.179Z,0.27
2023-02-26T16:54:09.464Z,0.06
2023-02-26T16:59:12.032Z,0.03
2023-02-26T17:04:13.543Z,0.02
2023-02-26T17:09:15.686Z,0.01
2023-02-26T17:14:17.414Z,-0.18
2023-02-26T17:19:19.329Z,-0.28
2023-02-26T17:24:21.287Z,-0.24
2023-02-26T17:29:22.588Z,-0.17
2023-02-26T17:34:24.696Z,-0.27
2023-02-26T17:39:26.581Z,-0.3
2023-02-26T17:44:28.472Z,-0.34
2023-02-26T17:49:30.601Z,-0.26
2023-02-26T17:54:32.344Z,-0.42
2023-02-26T17:59:34.269Z,-0.38
2023-02-26T18:04:36.781Z,-0.29
2023-02-26T18:09:37.838Z,-0.18
2023-02-26T18:14:39.648Z,-0.22
2023-02-26T18:19:42.210Z,-0.42
2023-02-26T18:24:43.764Z,-0.74
2023-02-26T18:29:45.728Z,-0.87
2023-02-26T18:34:47.547Z,-0.94
2023-02-26T18:44:58.971Z,-0.95
2023-02-26T18:49:53.646Z,-0.91
2023-02-26T19:15:00.592Z,-1.02
2023-02-26T19:25:10.480Z,-1.12
2023-02-26T19:35:14.012Z,-1.1
2023-02-26T19:40:15.953Z,-1.17
2023-02-26T19:50:19.186Z,-1.1
2023-02-26T19:55:20.821Z,-1.11
2023-02-26T20:00:22.483Z,-1.21
2023-02-26T20:05:23.765Z,-1.24
2023-02-26T20:10:25.715Z,-1.24
2023-02-26T20:15:27.088Z,-1.14
2023-02-26T20:20:29.066Z,-1.16
2023-02-26T20:25:30.466Z,-1.35
2023-02-26T20:30:32.232Z,-1.31
2023-02-26T20:35:33.587Z,-1.26
2023-02-26T20:40:35.534Z,-1.32
2023-02-26T20:45:37.297Z,-1.4
2023-02-26T20:50:39.377Z,-1.4
2023-02-26T20:55:41.227Z,-1.43
2023-02-26T21:00:43.031Z,-1.41
2023-02-26T21:05:54.476Z,-1.48
2023-02-26T21:10:46.105Z,-1.52
2023-02-26T21:15:47.950Z,-1.47
2023-02-26T21:20:49.470Z,-1.4
2023-02-26T21:25:51.523Z,-1.48
2023-02-26T21:30:53.675Z,-1.54
2023-02-26T21:35:54.862Z,-1.46
2023-02-26T21:40:56.185Z,-1.36
2023-02-26T21:45:57.808Z,-1.41
2023-02-26T21:50:59.716Z,-1.47
2023-02-26T21:56:01.013Z,-1.44
2023-02-26T22:01:02.735Z,-1.42
2023-02-26T22:06:04.792Z,-1.49
2023-02-26T22:11:06.001Z,-1.54
2023-02-26T22:16:08.011Z,-1.55
2023-02-26T22:21:10.139Z,-1.51
2023-02-26T22:26:11.977Z,-1.53
2023-02-26T22:31:14.393Z,-1.61
2023-02-26T22:36:16.281Z,-1.58
2023-02-26T22:41:17.721Z,-1.5
2023-02-26T22:46:19.216Z,-1.48
2023-02-26T22:51:20.704Z,-1.59
2023-02-26T22:56:21.926Z,-1.6
2023-02-26T23:16:28.942Z,-1.72
2023-02-26T23:21:30.968Z,-1.7
2023-02-26T23:26:32.216Z,-1.68
2023-02-26T23:31:33.896Z,-1.76
2023-02-26T23:36:35.151Z,-1.9
2023-02-26T23:41:37.169Z,-1.94
2023-02-26T23:46:39.121Z,-1.88
2023-02-26T23:51:40.889Z,-1.93
2023-02-26T23:56:42.781Z,-1.97
